sensor_id;sensor_type;location;lat;lon;timestamp;P1;durP1;ratioP1;P2;durP2;ratioP2
37288;SDS011;23174;49.462;11.000;2023-08-07T00:01:07;0.10;;;0.10;;
37288;SDS011;23174;49.462;11.000;2023-08-07T00:03:07;0.28;;;0.20;;
37288;SDS011;23174;49.462;11.000;2023-08-07T00:05:08;0.30;;;0.20;;
37288;SDS011;23174;49.462;11.000;2023-08-07T00:07:08;0.43;;;0.03;;
37288;SDS011;23174;49.462;11.000;2023-08-07T00:09:09;0.38;;;0.13;;
37288;SDS011;23174;49.462;11.000;2023-08-07T00:11:09;0.60;;;0.10;;
37288;SDS011;23174;49.462;11.000;2023-08-07T00:13:10;1.13;;;0.05;;
37288;SDS011;23174;49.462;11.000;2023-08-07T00:15:11;0.32;;;0.10;;
37288;SDS011;23174;49.462;11.000;2023-08-07T00:17:11;0.40;;;0.20;;
37288;SDS011;23174;49.462;11.000;2023-08-07T00:19:12;0.25;;;0.25;;
37288;SDS011;23174;49.462;11.000;2023-08-07T00:21:12;2.47;;;0.52;;
37288;SDS011;23174;49.462;11.000;2023-08-07T00:23:13;0.10;;;0.10;;
37288;SDS011;23174;49.462;11.000;2023-08-07T00:25:13;0.20;;;0.20;;
37288;SDS011;23174;49.462;11.000;2023-08-07T00:27:14;0.35;;;0.20;;
37288;SDS011;23174;49.462;11.000;2023-08-07T00:29:14;0.30;;;0.10;;
37288;SDS011;23174;49.462;11.000;2023-08-07T00:31:15;0.30;;;0.20;;
37288;SDS011;23174;49.462;11.000;2023-08-07T00:33:15;1.25;;;0.10;;
37288;SDS011;23174;49.462;11.000;2023-08-07T00:35:16;0.10;;;0.10;;
37288;SDS011;23174;49.462;11.000;2023-08-07T00:37:16;0.03;;;0.00;;
37288;SDS011;23174;49.462;11.000;2023-08-07T00:39:17;0.43;;;0.20;;
37288;SDS011;23174;49.462;11.000;2023-08-07T00:41:17;0.10;;;0.10;;
37288;SDS011;23174;49.462;11.000;2023-08-07T00:43:18;0.10;;;0.10;;
37288;SDS011;23174;49.462;11.000;2023-08-07T00:45:18;1.35;;;0.30;;
37288;SDS011;23174;49.462;11.000;2023-08-07T00:47:21;0.40;;;0.20;;
37288;SDS011;23174;49.462;11.000;2023-08-07T00:49:21;0.20;;;0.20;;
37288;SDS011;23174;49.462;11.000;2023-08-07T00:51:22;1.42;;;0.10;;
37288;SDS011;23174;49.462;11.000;2023-08-07T00:53:23;0.30;;;0.10;;
37288;SDS011;23174;49.462;11.000;2023-08-07T00:55:24;0.00;;;0.00;;
37288;SDS011;23174;49.462;11.000;2023-08-07T00:57:24;0.10;;;0.10;;
37288;SDS011;23174;49.462;11.000;2023-08-07T00:59:25;0.17;;;0.17;;
37288;SDS011;23174;49.462;11.000;2023-08-07T01:01:26;2.03;;;0.50;;
37288;SDS011;23174;49.462;11.000;2023-08-07T01:03:27;0.10;;;0.10;;
37288;SDS011;23174;49.462;11.000;2023-08-07T01:05:28;0.10;;;0.10;;
37288;SDS011;23174;49.462;11.000;2023-08-07T01:07:29;0.55;;;0.28;;
37288;SDS011;23174;49.462;11.000;2023-08-07T01:09:29;0.57;;;0.08;;
37288;SDS011;23174;49.462;11.000;2023-08-07T01:13:42;1.63;;;0.20;;
37288;SDS011;23174;49.462;11.000;2023-08-07T01:15:52;0.15;;;0.10;;
37288;SDS011;23174;49.462;11.000;2023-08-07T01:17:55;0.38;;;0.38;;
37288;SDS011;23174;49.462;11.000;2023-08-07T01:19:57;0.20;;;0.20;;
37288;SDS011;23174;49.462;11.000;2023-08-07T01:22:11;1.02;;;0.10;;
37288;SDS011;23174;49.462;11.000;2023-08-07T01:24:12;0.10;;;0.10;;
37288;SDS011;23174;49.462;11.000;2023-08-07T01:26:14;0.32;;;0.20;;
37288;SDS011;23174;49.462;11.000;2023-08-07T01:28:22;0.45;;;0.10;;
37288;SDS011;23174;49.462;11.000;2023-08-07T01:30:38;4.80;;;0.13;;
37288;SDS011;23174;49.462;11.000;2023-08-07T01:32:53;5.57;;;0.32;;
37288;SDS011;23174;49.462;11.000;2023-08-07T01:34:57;0.10;;;0.10;;
37288;SDS011;23174;49.462;11.000;2023-08-07T01:37:01;0.30;;;0.20;;
37288;SDS011;23174;49.462;11.000;2023-08-07T01:39:03;0.05;;;0.05;;
37288;SDS011;23174;49.462;11.000;2023-08-07T01:41:06;0.20;;;0.20;;
37288;SDS011;23174;49.462;11.000;2023-08-07T01:43:07;0.52;;;0.22;;
37288;SDS011;23174;49.462;11.000;2023-08-07T01:45:08;0.60;;;0.30;;
37288;SDS011;23174;49.462;11.000;2023-08-07T01:47:09;0.57;;;0.32;;
37288;SDS011;23174;49.462;11.000;2023-08-07T01:49:10;0.15;;;0.10;;
37288;SDS011;23174;49.462;11.000;2023-08-07T01:51:10;0.13;;;0.13;;
37288;SDS011;23174;49.462;11.000;2023-08-07T01:53:10;0.15;;;0.13;;
37288;SDS011;23174;49.462;11.000;2023-08-07T01:55:11;4.10;;;0.22;;
37288;SDS011;23174;49.462;11.000;2023-08-07T01:57:12;0.20;;;0.20;;
37288;SDS011;23174;49.462;11.000;2023-08-07T01:59:12;3.67;;;0.40;;
37288;SDS011;23174;49.462;11.000;2023-08-07T02:01:13;0.20;;;0.10;;
37288;SDS011;23174;49.462;11.000;2023-08-07T02:03:13;0.45;;;0.20;;
37288;SDS011;23174;49.462;11.000;2023-08-07T02:05:14;0.10;;;0.10;;
37288;SDS011;23174;49.462;11.000;2023-08-07T02:07:15;0.40;;;0.40;;
37288;SDS011;23174;49.462;11.000;2023-08-07T02:09:15;0.60;;;0.28;;
37288;SDS011;23174;49.462;11.000;2023-08-07T02:11:16;0.70;;;0.40;;
37288;SDS011;23174;49.462;11.000;2023-08-07T02:13:16;0.20;;;0.20;;
37288;SDS011;23174;49.462;11.000;2023-08-07T02:15:17;0.38;;;0.22;;
37288;SDS011;23174;49.462;11.000;2023-08-07T02:17:17;1.58;;;0.22;;
37288;SDS011;23174;49.462;11.000;2023-08-07T02:19:20;0.00;;;0.00;;
37288;SDS011;23174;49.462;11.000;2023-08-07T02:21:20;0.10;;;0.10;;
37288;SDS011;23174;49.462;11.000;2023-08-07T02:23:21;2.10;;;0.35;;
37288;SDS011;23174;49.462;11.000;2023-08-07T02:25:21;0.35;;;0.20;;
37288;SDS011;23174;49.462;11.000;2023-08-07T02:27:22;1.02;;;0.43;;
37288;SDS011;23174;49.462;11.000;2023-08-07T02:29:22;1.83;;;0.38;;
37288;SDS011;23174;49.462;11.000;2023-08-07T02:31:23;0.32;;;0.32;;
37288;SDS011;23174;49.462;11.000;2023-08-07T02:33:23;0.77;;;0.20;;
37288;SDS011;23174;49.462;11.000;2023-08-07T02:35:24;0.30;;;0.30;;
37288;SDS011;23174;49.462;11.000;2023-08-07T02:37:24;0.50;;;0.30;;
37288;SDS011;23174;49.462;11.000;2023-08-07T02:39:25;0.43;;;0.20;;
37288;SDS011;23174;49.462;11.000;2023-08-07T02:41:25;0.80;;;0.28;;
37288;SDS011;23174;49.462;11.000;2023-08-07T02:43:26;0.63;;;0.38;;
37288;SDS011;23174;49.462;11.000;2023-08-07T02:45:28;0.50;;;0.38;;
37288;SDS011;23174;49.462;11.000;2023-08-07T02:47:29;0.57;;;0.32;;
37288;SDS011;23174;49.462;11.000;2023-08-07T02:49:29;0.70;;;0.45;;
37288;SDS011;23174;49.462;11.000;2023-08-07T02:51:30;0.30;;;0.30;;
37288;SDS011;23174;49.462;11.000;2023-08-07T02:53:31;0.35;;;0.28;;
37288;SDS011;23174;49.462;11.000;2023-08-07T02:55:31;0.25;;;0.25;;
37288;SDS011;23174;49.462;11.000;2023-08-07T02:57:32;0.40;;;0.40;;
37288;SDS011;23174;49.462;11.000;2023-08-07T02:59:33;0.50;;;0.40;;
37288;SDS011;23174;49.462;11.000;2023-08-07T03:01:33;0.30;;;0.30;;
37288;SDS011;23174;49.462;11.000;2023-08-07T03:03:34;0.68;;;0.30;;
37288;SDS011;23174;49.462;11.000;2023-08-07T03:05:35;0.40;;;0.20;;
37288;SDS011;23174;49.462;11.000;2023-08-07T03:07:35;2.10;;;0.35;;
37288;SDS011;23174;49.462;11.000;2023-08-07T03:09:36;2.60;;;0.52;;
37288;SDS011;23174;49.462;11.000;2023-08-07T03:11:36;0.60;;;0.43;;
37288;SDS011;23174;49.462;11.000;2023-08-07T03:13:37;1.35;;;0.47;;
37288;SDS011;23174;49.462;11.000;2023-08-07T03:15:37;1.08;;;0.40;;
37288;SDS011;23174;49.462;11.000;2023-08-07T03:17:37;0.52;;;0.30;;
37288;SDS011;23174;49.462;11.000;2023-08-07T03:19:39;1.25;;;0.68;;
37288;SDS011;23174;49.462;11.000;2023-08-07T03:21:41;0.85;;;0.73;;
37288;SDS011;23174;49.462;11.000;2023-08-07T03:23:42;1.92;;;0.57;;
37288;SDS011;23174;49.462;11.000;2023-08-07T03:25:42;0.68;;;0.35;;
37288;SDS011;23174;49.462;11.000;2023-08-07T03:27:43;0.30;;;0.30;;
37288;SDS011;23174;49.462;11.000;2023-08-07T03:29:43;0.50;;;0.50;;
37288;SDS011;23174;49.462;11.000;2023-08-07T03:31:44;0.90;;;0.40;;
37288;SDS011;23174;49.462;11.000;2023-08-07T03:33:44;1.27;;;0.40;;
37288;SDS011;23174;49.462;11.000;2023-08-07T03:35:45;1.10;;;0.60;;
37288;SDS011;23174;49.462;11.000;2023-08-07T03:37:45;0.88;;;0.55;;
37288;SDS011;23174;49.462;11.000;2023-08-07T03:39:46;1.42;;;0.52;;
37288;SDS011;23174;49.462;11.000;2023-08-07T03:41:48;1.17;;;0.65;;
37288;SDS011;23174;49.462;11.000;2023-08-07T03:43:49;1.20;;;0.70;;
37288;SDS011;23174;49.462;11.000;2023-08-07T03:45:54;0.95;;;0.85;;
37288;SDS011;23174;49.462;11.000;2023-08-07T03:47:56;3.90;;;0.52;;
37288;SDS011;23174;49.462;11.000;2023-08-07T03:49:57;1.23;;;0.70;;
37288;SDS011;23174;49.462;11.000;2023-08-07T03:51:57;1.13;;;0.70;;
37288;SDS011;23174;49.462;11.000;2023-08-07T03:53:59;0.60;;;0.60;;
37288;SDS011;23174;49.462;11.000;2023-08-07T03:55:59;1.10;;;0.50;;
37288;SDS011;23174;49.462;11.000;2023-08-07T03:58:00;3.78;;;0.80;;
37288;SDS011;23174;49.462;11.000;2023-08-07T04:00:00;1.75;;;0.60;;
37288;SDS011;23174;49.462;11.000;2023-08-07T04:02:01;0.50;;;0.50;;
37288;SDS011;23174;49.462;11.000;2023-08-07T04:04:01;0.00;;;0.00;;
37288;SDS011;23174;49.462;11.000;2023-08-07T04:06:02;0.00;;;0.00;;
37288;SDS011;23174;49.462;11.000;2023-08-07T04:08:05;0.15;;;0.15;;
37288;SDS011;23174;49.462;11.000;2023-08-07T04:10:05;0.20;;;0.10;;
37288;SDS011;23174;49.462;11.000;2023-08-07T04:12:06;1.17;;;0.47;;
37288;SDS011;23174;49.462;11.000;2023-08-07T04:14:07;0.10;;;0.10;;
37288;SDS011;23174;49.462;11.000;2023-08-07T04:16:08;0.00;;;0.00;;
37288;SDS011;23174;49.462;11.000;2023-08-07T04:18:08;0.20;;;0.20;;
37288;SDS011;23174;49.462;11.000;2023-08-07T04:20:09;0.08;;;0.08;;
37288;SDS011;23174;49.462;11.000;2023-08-07T04:22:10;0.10;;;0.10;;
37288;SDS011;23174;49.462;11.000;2023-08-07T04:24:10;0.00;;;0.00;;
37288;SDS011;23174;49.462;11.000;2023-08-07T04:26:11;2.03;;;0.20;;
37288;SDS011;23174;49.462;11.000;2023-08-07T04:28:11;0.45;;;0.30;;
37288;SDS011;23174;49.462;11.000;2023-08-07T04:30:12;0.30;;;0.22;;
37288;SDS011;23174;49.462;11.000;2023-08-07T04:32:12;0.00;;;0.00;;
37288;SDS011;23174;49.462;11.000;2023-08-07T04:34:13;0.00;;;0.00;;
37288;SDS011;23174;49.462;11.000;2023-08-07T04:36:13;0.43;;;0.10;;
37288;SDS011;23174;49.462;11.000;2023-08-07T04:38:16;0.10;;;0.10;;
37288;SDS011;23174;49.462;11.000;2023-08-07T04:40:17;0.10;;;0.10;;
37288;SDS011;23174;49.462;11.000;2023-08-07T04:42:18;0.40;;;0.22;;
37288;SDS011;23174;49.462;11.000;2023-08-07T04:44:18;6.03;;;0.03;;
37288;SDS011;23174;49.462;11.000;2023-08-07T04:46:18;0.00;;;0.00;;
37288;SDS011;23174;49.462;11.000;2023-08-07T04:48:19;0.00;;;0.00;;
37288;SDS011;23174;49.462;11.000;2023-08-07T04:50:21;1.02;;;0.15;;
37288;SDS011;23174;49.462;11.000;2023-08-07T04:52:21;0.20;;;0.20;;
37288;SDS011;23174;49.462;11.000;2023-08-07T04:54:21;1.35;;;0.15;;
37288;SDS011;23174;49.462;11.000;2023-08-07T04:56:22;0.10;;;0.10;;
37288;SDS011;23174;49.462;11.000;2023-08-07T04:58:22;0.00;;;0.00;;
37288;SDS011;23174;49.462;11.000;2023-08-07T05:00:23;0.10;;;0.10;;
37288;SDS011;23174;49.462;11.000;2023-08-07T05:02:24;0.35;;;0.32;;
37288;SDS011;23174;49.462;11.000;2023-08-07T05:04:25;0.20;;;0.17;;
37288;SDS011;23174;49.462;11.000;2023-08-07T05:06:25;0.38;;;0.38;;
37288;SDS011;23174;49.462;11.000;2023-08-07T05:08:26;0.00;;;0.00;;
37288;SDS011;23174;49.462;11.000;2023-08-07T05:10:26;0.30;;;0.25;;
37288;SDS011;23174;49.462;11.000;2023-08-07T05:12:27;0.10;;;0.10;;
37288;SDS011;23174;49.462;11.000;2023-08-07T05:14:29;0.00;;;0.00;;
37288;SDS011;23174;49.462;11.000;2023-08-07T05:16:29;0.47;;;0.30;;
37288;SDS011;23174;49.462;11.000;2023-08-07T05:18:30;0.00;;;0.00;;
37288;SDS011;23174;49.462;11.000;2023-08-07T05:20:31;0.28;;;0.28;;
37288;SDS011;23174;49.462;11.000;2023-08-07T05:22:31;0.00;;;0.00;;
37288;SDS011;23174;49.462;11.000;2023-08-07T05:24:32;0.20;;;0.20;;
37288;SDS011;23174;49.462;11.000;2023-08-07T05:26:38;0.25;;;0.25;;
37288;SDS011;23174;49.462;11.000;2023-08-07T05:28:39;0.00;;;0.00;;
37288;SDS011;23174;49.462;11.000;2023-08-07T05:30:39;0.10;;;0.10;;
37288;SDS011;23174;49.462;11.000;2023-08-07T05:32:40;0.10;;;0.10;;
37288;SDS011;23174;49.462;11.000;2023-08-07T05:34:41;0.40;;;0.40;;
37288;SDS011;23174;49.462;11.000;2023-08-07T05:36:41;0.30;;;0.30;;
37288;SDS011;23174;49.462;11.000;2023-08-07T05:38:42;0.25;;;0.20;;
37288;SDS011;23174;49.462;11.000;2023-08-07T05:40:43;0.10;;;0.10;;
37288;SDS011;23174;49.462;11.000;2023-08-07T05:42:43;1.52;;;0.22;;
37288;SDS011;23174;49.462;11.000;2023-08-07T05:44:44;0.70;;;0.25;;
37288;SDS011;23174;49.462;11.000;2023-08-07T05:46:44;0.20;;;0.20;;
37288;SDS011;23174;49.462;11.000;2023-08-07T05:48:45;0.00;;;0.00;;
37288;SDS011;23174;49.462;11.000;2023-08-07T05:50:45;6.90;;;0.17;;
37288;SDS011;23174;49.462;11.000;2023-08-07T05:52:46;0.45;;;0.40;;
37288;SDS011;23174;49.462;11.000;2023-08-07T05:54:46;0.25;;;0.25;;
37288;SDS011;23174;49.462;11.000;2023-08-07T05:56:47;0.00;;;0.00;;
37288;SDS011;23174;49.462;11.000;2023-08-07T05:58:48;0.08;;;0.05;;
37288;SDS011;23174;49.462;11.000;2023-08-07T06:00:49;0.08;;;0.08;;
37288;SDS011;23174;49.462;11.000;2023-08-07T06:02:49;0.65;;;0.20;;
37288;SDS011;23174;49.462;11.000;2023-08-07T06:04:50;0.10;;;0.10;;
37288;SDS011;23174;49.462;11.000;2023-08-07T06:06:50;0.13;;;0.13;;
37288;SDS011;23174;49.462;11.000;2023-08-07T06:08:51;0.47;;;0.47;;
37288;SDS011;23174;49.462;11.000;2023-08-07T06:10:52;0.28;;;0.20;;
37288;SDS011;23174;49.462;11.000;2023-08-07T06:12:52;0.17;;;0.17;;
37288;SDS011;23174;49.462;11.000;2023-08-07T06:14:53;0.10;;;0.10;;
37288;SDS011;23174;49.462;11.000;2023-08-07T06:16:54;0.32;;;0.30;;
37288;SDS011;23174;49.462;11.000;2023-08-07T06:18:55;0.30;;;0.20;;
37288;SDS011;23174;49.462;11.000;2023-08-07T06:20:55;0.10;;;0.10;;
37288;SDS011;23174;49.462;11.000;2023-08-07T06:22:56;0.30;;;0.30;;
37288;SDS011;23174;49.462;11.000;2023-08-07T06:24:57;0.13;;;0.13;;
37288;SDS011;23174;49.462;11.000;2023-08-07T06:26:57;0.10;;;0.10;;
37288;SDS011;23174;49.462;11.000;2023-08-07T06:28:58;2.92;;;0.40;;
37288;SDS011;23174;49.462;11.000;2023-08-07T06:31:07;0.25;;;0.25;;
37288;SDS011;23174;49.462;11.000;2023-08-07T06:33:09;0.17;;;0.17;;
37288;SDS011;23174;49.462;11.000;2023-08-07T06:35:10;0.15;;;0.15;;
37288;SDS011;23174;49.462;11.000;2023-08-07T06:37:10;0.30;;;0.30;;
37288;SDS011;23174;49.462;11.000;2023-08-07T06:39:11;0.65;;;0.43;;
37288;SDS011;23174;49.462;11.000;2023-08-07T06:41:12;0.30;;;0.30;;
37288;SDS011;23174;49.462;11.000;2023-08-07T06:43:13;2.25;;;0.30;;
37288;SDS011;23174;49.462;11.000;2023-08-07T06:45:13;0.38;;;0.20;;
37288;SDS011;23174;49.462;11.000;2023-08-07T06:47:14;1.63;;;0.93;;
37288;SDS011;23174;49.462;11.000;2023-08-07T06:49:14;2.30;;;1.00;;
37288;SDS011;23174;49.462;11.000;2023-08-07T06:51:15;1.10;;;0.90;;
37288;SDS011;23174;49.462;11.000;2023-08-07T06:53:16;0.75;;;0.68;;
37288;SDS011;23174;49.462;11.000;2023-08-07T06:55:17;1.45;;;0.90;;
37288;SDS011;23174;49.462;11.000;2023-08-07T06:57:18;2.47;;;1.42;;
37288;SDS011;23174;49.462;11.000;2023-08-07T06:59:19;4.03;;;0.90;;
37288;SDS011;23174;49.462;11.000;2023-08-07T07:01:19;2.10;;;1.08;;
37288;SDS011;23174;49.462;11.000;2023-08-07T07:03:21;1.95;;;1.23;;
37288;SDS011;23174;49.462;11.000;2023-08-07T07:05:21;2.55;;;1.10;;
37288;SDS011;23174;49.462;11.000;2023-08-07T07:07:22;1.30;;;1.20;;
37288;SDS011;23174;49.462;11.000;2023-08-07T07:09:22;2.25;;;1.15;;
37288;SDS011;23174;49.462;11.000;2023-08-07T07:11:23;2.15;;;0.90;;
37288;SDS011;23174;49.462;11.000;2023-08-07T07:13:24;1.10;;;1.00;;
37288;SDS011;23174;49.462;11.000;2023-08-07T07:15:24;2.05;;;1.00;;
37288;SDS011;23174;49.462;11.000;2023-08-07T07:17:25;2.20;;;1.17;;
37288;SDS011;23174;49.462;11.000;2023-08-07T07:19:25;1.90;;;1.10;;
37288;SDS011;23174;49.462;11.000;2023-08-07T07:21:26;2.10;;;1.02;;
37288;SDS011;23174;49.462;11.000;2023-08-07T07:23:26;2.33;;;1.38;;
37288;SDS011;23174;49.462;11.000;2023-08-07T07:25:27;3.75;;;1.20;;
37288;SDS011;23174;49.462;11.000;2023-08-07T07:27:28;3.00;;;1.30;;
37288;SDS011;23174;49.462;11.000;2023-08-07T07:29:28;1.85;;;0.93;;
37288;SDS011;23174;49.462;11.000;2023-08-07T07:31:29;1.75;;;0.73;;
37288;SDS011;23174;49.462;11.000;2023-08-07T07:33:30;3.28;;;1.15;;
37288;SDS011;23174;49.462;11.000;2023-08-07T07:35:30;3.72;;;1.30;;
37288;SDS011;23174;49.462;11.000;2023-08-07T07:37:31;2.58;;;1.42;;
37288;SDS011;23174;49.462;11.000;2023-08-07T07:39:32;4.10;;;1.13;;
37288;SDS011;23174;49.462;11.000;2023-08-07T07:41:37;1.73;;;1.08;;
37288;SDS011;23174;49.462;11.000;2023-08-07T07:43:37;6.28;;;1.00;;
37288;SDS011;23174;49.462;11.000;2023-08-07T07:45:38;2.33;;;1.00;;
37288;SDS011;23174;49.462;11.000;2023-08-07T07:47:38;1.10;;;1.00;;
37288;SDS011;23174;49.462;11.000;2023-08-07T07:49:39;3.25;;;1.20;;
37288;SDS011;23174;49.462;11.000;2023-08-07T07:51:44;1.35;;;0.90;;
37288;SDS011;23174;49.462;11.000;2023-08-07T07:53:46;2.58;;;1.20;;
37288;SDS011;23174;49.462;11.000;2023-08-07T07:55:47;4.57;;;1.20;;
37288;SDS011;23174;49.462;11.000;2023-08-07T07:57:48;1.92;;;1.35;;
37288;SDS011;23174;49.462;11.000;2023-08-07T07:59:48;1.55;;;1.17;;
37288;SDS011;23174;49.462;11.000;2023-08-07T08:01:49;1.48;;;0.95;;
37288;SDS011;23174;49.462;11.000;2023-08-07T08:03:49;1.77;;;1.00;;
37288;SDS011;23174;49.462;11.000;2023-08-07T08:05:50;1.38;;;1.05;;
37288;SDS011;23174;49.462;11.000;2023-08-07T08:07:51;4.10;;;1.30;;
37288;SDS011;23174;49.462;11.000;2023-08-07T08:09:52;2.40;;;1.48;;
37288;SDS011;23174;49.462;11.000;2023-08-07T08:11:52;2.17;;;1.27;;
37288;SDS011;23174;49.462;11.000;2023-08-07T08:13:53;2.15;;;1.33;;
37288;SDS011;23174;49.462;11.000;2023-08-07T08:15:53;2.45;;;1.50;;
37288;SDS011;23174;49.462;11.000;2023-08-07T08:17:54;3.20;;;1.00;;
37288;SDS011;23174;49.462;11.000;2023-08-07T08:19:54;8.50;;;1.58;;
37288;SDS011;23174;49.462;11.000;2023-08-07T08:21:55;3.30;;;1.17;;
37288;SDS011;23174;49.462;11.000;2023-08-07T08:23:55;3.05;;;1.17;;
37288;SDS011;23174;49.462;11.000;2023-08-07T08:25:56;1.55;;;1.08;;
37288;SDS011;23174;49.462;11.000;2023-08-07T08:27:56;2.72;;;1.40;;
37288;SDS011;23174;49.462;11.000;2023-08-07T08:29:57;4.65;;;1.35;;
37288;SDS011;23174;49.462;11.000;2023-08-07T08:31:57;2.22;;;1.30;;
37288;SDS011;23174;49.462;11.000;2023-08-07T08:33:58;2.47;;;1.38;;
37288;SDS011;23174;49.462;11.000;2023-08-07T08:35:59;6.03;;;1.75;;
37288;SDS011;23174;49.462;11.000;2023-08-07T08:37:59;2.08;;;1.63;;
37288;SDS011;23174;49.462;11.000;2023-08-07T08:40:00;1.73;;;1.15;;
37288;SDS011;23174;49.462;11.000;2023-08-07T08:42:01;2.80;;;1.92;;
37288;SDS011;23174;49.462;11.000;2023-08-07T08:44:02;2.75;;;1.45;;
37288;SDS011;23174;49.462;11.000;2023-08-07T08:46:05;3.33;;;1.10;;
37288;SDS011;23174;49.462;11.000;2023-08-07T08:48:06;2.63;;;1.02;;
37288;SDS011;23174;49.462;11.000;2023-08-07T08:50:11;3.70;;;1.17;;
37288;SDS011;23174;49.462;11.000;2023-08-07T08:52:14;2.17;;;1.30;;
37288;SDS011;23174;49.462;11.000;2023-08-07T08:54:15;2.47;;;1.02;;
37288;SDS011;23174;49.462;11.000;2023-08-07T08:56:16;1.98;;;1.25;;
37288;SDS011;23174;49.462;11.000;2023-08-07T08:58:17;1.77;;;1.23;;
37288;SDS011;23174;49.462;11.000;2023-08-07T09:00:19;3.33;;;1.08;;
37288;SDS011;23174;49.462;11.000;2023-08-07T09:02:23;3.05;;;1.30;;
37288;SDS011;23174;49.462;11.000;2023-08-07T09:04:23;2.78;;;1.40;;
37288;SDS011;23174;49.462;11.000;2023-08-07T09:06:24;2.25;;;1.00;;
37288;SDS011;23174;49.462;11.000;2023-08-07T09:08:27;2.63;;;1.30;;
37288;SDS011;23174;49.462;11.000;2023-08-07T09:10:30;3.22;;;1.05;;
37288;SDS011;23174;49.462;11.000;2023-08-07T09:12:32;1.60;;;0.90;;
37288;SDS011;23174;49.462;11.000;2023-08-07T09:14:33;1.30;;;0.88;;
37288;SDS011;23174;49.462;11.000;2023-08-07T09:16:37;4.65;;;1.40;;
37288;SDS011;23174;49.462;11.000;2023-08-07T09:18:38;1.35;;;1.00;;
37288;SDS011;23174;49.462;11.000;2023-08-07T09:20:40;1.23;;;1.10;;
37288;SDS011;23174;49.462;11.000;2023-08-07T09:22:41;1.55;;;0.82;;
37288;SDS011;23174;49.462;11.000;2023-08-07T09:24:42;2.20;;;1.00;;
37288;SDS011;23174;49.462;11.000;2023-08-07T09:26:42;2.08;;;1.23;;
37288;SDS011;23174;49.462;11.000;2023-08-07T09:28:43;1.55;;;1.02;;
37288;SDS011;23174;49.462;11.000;2023-08-07T09:30:44;5.35;;;1.20;;
37288;SDS011;23174;49.462;11.000;2023-08-07T09:32:47;1.88;;;1.02;;
37288;SDS011;23174;49.462;11.000;2023-08-07T09:34:47;1.83;;;1.23;;
37288;SDS011;23174;49.462;11.000;2023-08-07T09:36:49;1.13;;;1.05;;
37288;SDS011;23174;49.462;11.000;2023-08-07T09:38:52;1.48;;;1.23;;
37288;SDS011;23174;49.462;11.000;2023-08-07T09:40:52;1.63;;;0.95;;
37288;SDS011;23174;49.462;11.000;2023-08-07T09:42:53;1.25;;;0.90;;
37288;SDS011;23174;49.462;11.000;2023-08-07T09:44:54;1.55;;;0.80;;
37288;SDS011;23174;49.462;11.000;2023-08-07T09:46:54;2.33;;;1.13;;
37288;SDS011;23174;49.462;11.000;2023-08-07T09:48:57;1.58;;;1.00;;
37288;SDS011;23174;49.462;11.000;2023-08-07T09:51:00;2.15;;;0.95;;
37288;SDS011;23174;49.462;11.000;2023-08-07T09:53:02;0.88;;;0.70;;
37288;SDS011;23174;49.462;11.000;2023-08-07T09:55:03;1.08;;;0.95;;
37288;SDS011;23174;49.462;11.000;2023-08-07T09:57:05;1.45;;;1.10;;
37288;SDS011;23174;49.462;11.000;2023-08-07T09:59:07;2.10;;;1.20;;
37288;SDS011;23174;49.462;11.000;2023-08-07T10:01:08;0.95;;;0.95;;
37288;SDS011;23174;49.462;11.000;2023-08-07T10:03:09;4.13;;;1.20;;
37288;SDS011;23174;49.462;11.000;2023-08-07T10:05:10;1.52;;;1.02;;
37288;SDS011;23174;49.462;11.000;2023-08-07T10:07:11;0.90;;;0.82;;
37288;SDS011;23174;49.462;11.000;2023-08-07T10:09:14;0.75;;;0.55;;
37288;SDS011;23174;49.462;11.000;2023-08-07T10:11:15;1.25;;;0.70;;
37288;SDS011;23174;49.462;11.000;2023-08-07T10:13:16;0.75;;;0.70;;
37288;SDS011;23174;49.462;11.000;2023-08-07T10:15:17;0.20;;;0.20;;
37288;SDS011;23174;49.462;11.000;2023-08-07T10:17:19;0.25;;;0.25;;
37288;SDS011;23174;49.462;11.000;2023-08-07T10:19:21;0.30;;;0.28;;
37288;SDS011;23174;49.462;11.000;2023-08-07T10:21:23;0.15;;;0.15;;
37288;SDS011;23174;49.462;11.000;2023-08-07T10:23:24;0.05;;;0.05;;
37288;SDS011;23174;49.462;11.000;2023-08-07T10:25:25;0.13;;;0.10;;
37288;SDS011;23174;49.462;11.000;2023-08-07T10:27:27;0.25;;;0.25;;
37288;SDS011;23174;49.462;11.000;2023-08-07T10:29:30;0.15;;;0.15;;
37288;SDS011;23174;49.462;11.000;2023-08-07T10:31:33;0.35;;;0.30;;
37288;SDS011;23174;49.462;11.000;2023-08-07T10:33:35;0.32;;;0.32;;
37288;SDS011;23174;49.462;11.000;2023-08-07T10:35:36;0.75;;;0.25;;
37288;SDS011;23174;49.462;11.000;2023-08-07T10:37:40;0.30;;;0.30;;
37288;SDS011;23174;49.462;11.000;2023-08-07T10:40:00;0.20;;;0.20;;
37288;SDS011;23174;49.462;11.000;2023-08-07T10:42:03;0.20;;;0.20;;
37288;SDS011;23174;49.462;11.000;2023-08-07T10:44:04;0.30;;;0.30;;
37288;SDS011;23174;49.462;11.000;2023-08-07T10:46:06;0.22;;;0.10;;
37288;SDS011;23174;49.462;11.000;2023-08-07T10:48:12;0.10;;;0.10;;
37288;SDS011;23174;49.462;11.000;2023-08-07T10:50:17;0.93;;;0.28;;
37288;SDS011;23174;49.462;11.000;2023-08-07T10:52:18;0.20;;;0.20;;
37288;SDS011;23174;49.462;11.000;2023-08-07T10:54:23;0.22;;;0.20;;
37288;SDS011;23174;49.462;11.000;2023-08-07T10:56:30;0.15;;;0.15;;
37288;SDS011;23174;49.462;11.000;2023-08-07T10:58:39;0.13;;;0.10;;
37288;SDS011;23174;49.462;11.000;2023-08-07T11:00:40;0.45;;;0.22;;
37288;SDS011;23174;49.462;11.000;2023-08-07T11:02:41;0.20;;;0.20;;
37288;SDS011;23174;49.462;11.000;2023-08-07T11:04:42;0.00;;;0.00;;
37288;SDS011;23174;49.462;11.000;2023-08-07T11:06:43;0.10;;;0.10;;
37288;SDS011;23174;49.462;11.000;2023-08-07T11:08:48;1.45;;;0.32;;
37288;SDS011;23174;49.462;11.000;2023-08-07T11:10:50;0.10;;;0.10;;
37288;SDS011;23174;49.462;11.000;2023-08-07T11:12:52;0.00;;;0.00;;
37288;SDS011;23174;49.462;11.000;2023-08-07T11:14:52;0.40;;;0.30;;
37288;SDS011;23174;49.462;11.000;2023-08-07T11:16:56;0.00;;;0.00;;
37288;SDS011;23174;49.462;11.000;2023-08-07T11:18:57;0.28;;;0.28;;
37288;SDS011;23174;49.462;11.000;2023-08-07T11:20:58;0.57;;;0.52;;
37288;SDS011;23174;49.462;11.000;2023-08-07T11:22:59;0.88;;;0.60;;
37288;SDS011;23174;49.462;11.000;2023-08-07T11:24:59;0.20;;;0.20;;
37288;SDS011;23174;49.462;11.000;2023-08-07T11:27:01;0.47;;;0.45;;
37288;SDS011;23174;49.462;11.000;2023-08-07T11:29:01;0.17;;;0.17;;
37288;SDS011;23174;49.462;11.000;2023-08-07T11:31:02;1.20;;;0.35;;
37288;SDS011;23174;49.462;11.000;2023-08-07T11:33:03;0.20;;;0.20;;
37288;SDS011;23174;49.462;11.000;2023-08-07T11:35:03;3.10;;;0.70;;
37288;SDS011;23174;49.462;11.000;2023-08-07T11:37:05;0.43;;;0.43;;
37288;SDS011;23174;49.462;11.000;2023-08-07T11:39:06;0.43;;;0.43;;
37288;SDS011;23174;49.462;11.000;2023-08-07T11:41:06;0.38;;;0.38;;
37288;SDS011;23174;49.462;11.000;2023-08-07T11:43:07;0.40;;;0.40;;
37288;SDS011;23174;49.462;11.000;2023-08-07T11:45:09;0.20;;;0.20;;
37288;SDS011;23174;49.462;11.000;2023-08-07T11:47:10;3.10;;;0.10;;
37288;SDS011;23174;49.462;11.000;2023-08-07T11:49:10;0.47;;;0.45;;
37288;SDS011;23174;49.462;11.000;2023-08-07T11:51:12;0.55;;;0.47;;
37288;SDS011;23174;49.462;11.000;2023-08-07T11:53:13;2.17;;;0.50;;
37288;SDS011;23174;49.462;11.000;2023-08-07T11:55:14;0.13;;;0.13;;
37288;SDS011;23174;49.462;11.000;2023-08-07T11:57:15;0.10;;;0.10;;
37288;SDS011;23174;49.462;11.000;2023-08-07T11:59:22;0.30;;;0.30;;
37288;SDS011;23174;49.462;11.000;2023-08-07T12:01:22;0.93;;;0.40;;